Time;durP1;ratioP1;P1;durP2;ratioP2;P2;SDS_P1;SDS_P2;PMS_P1;PMS_P2;Temp;Humidity;BMP_temperature;BMP_pressure;BME280_temperature;BME280_humidity;BME280_pressure;Samples;Min_cycle;Max_cycle;Signal;HPM_P1;HPM_P2
2021/05/19 00:09:17;;;;;;;9.53;8.63;;;;;;;9.47;80.40;98839.22;516898;1092;115862;-65
2021/05/19 00:19:22;;;;;;;9.50;8.57;;;;;;;9.38;80.59;98848.55;518038;1098;116359;-67
2021/05/19 00:29:27;;;;;;;4.83;4.43;;;;;;;9.43;81.20;98856.94;529099;1098;116843;-66
2021/05/19 00:39:32;;;;;;;6.37;4.83;;;;;;;9.54;81.01;98853.54;514908;1093;117034;-65
2021/05/19 00:49:37;;;;;;;4.70;4.37;;;;;;;9.52;81.11;98852.81;517183;1097;115625;-66
2021/05/19 00:59:42;;;;;;;6.65;5.48;;;;;;;9.51;80.94;98851.97;516744;1098;116943;-67
2021/05/19 01:09:47;;;;;;;7.00;5.93;;;;;;;9.50;81.35;98859.95;520444;1098;115495;-65
2021/05/19 01:19:53;;;;;;;6.67;5.50;;;;;;;9.50;81.58;98849.47;512467;1098;115692;-65
2021/05/19 01:29:59;;;;;;;6.98;5.98;;;;;;;9.55;81.63;98855.21;524753;1098;115994;-66
2021/05/19 01:40:07;;;;;;;8.27;7.47;;;;;;;9.53;81.49;98855.34;515458;1093;118559;-64
2021/05/19 01:50:14;;;;;;;8.93;8.10;;;;;;;9.52;81.70;98858.91;515794;1093;115744;-64
2021/05/19 02:00:23;;;;;;;13.13;11.27;;;;;;;9.58;81.50;98856.78;520804;1098;116149;-65
2021/05/19 02:10:29;;;;;;;9.40;8.47;;;;;;;9.62;81.66;98861.70;518148;1093;115685;-64
2021/05/19 02:20:35;;;;;;;9.07;7.53;;;;;;;9.71;81.82;98870.67;519892;1098;115888;-66
2021/05/19 02:30:40;;;;;;;10.77;9.67;;;;;;;9.73;81.78;98870.58;519004;1098;115463;-66
2021/05/19 02:40:45;;;;;;;10.90;9.77;;;;;;;9.74;81.69;98869.63;517421;1098;116144;-65
2021/05/19 02:50:50;;;;;;;12.97;10.30;;;;;;;9.76;81.57;98876.44;520513;1098;116378;-67
2021/05/19 03:00:55;;;;;;;13.87;12.23;;;;;;;9.72;82.12;98869.72;516974;1093;116638;-66
2021/05/19 03:11:01;;;;;;;13.50;12.20;;;;;;;9.78;81.95;98874.54;514489;1098;116074;-66
2021/05/19 03:21:06;;;;;;;14.20;12.10;;;;;;;9.85;82.08;98885.41;522039;1098;117341;-64
2021/05/19 03:31:12;;;;;;;15.93;13.80;;;;;;;9.89;81.95;98886.86;515836;1092;115972;-65
2021/05/19 03:41:17;;;;;;;18.23;16.37;;;;;;;9.99;82.19;98904.55;515876;1098;116224;-64
2021/05/19 03:51:23;;;;;;;17.20;15.47;;;;;;;10.05;82.33;98901.50;526844;1098;116109;-65
2021/05/19 04:01:28;;;;;;;14.93;13.40;;;;;;;10.17;82.31;98910.23;519339;1093;164923;-64
2021/05/19 04:11:33;;;;;;;14.83;13.27;;;;;;;10.20;82.41;98925.75;514923;1098;116477;-65
2021/05/19 04:21:38;;;;;;;14.67;12.50;;;;;;;10.19;82.64;98921.45;521180;1093;116547;-66
2021/05/19 04:31:43;;;;;;;14.15;12.75;;;;;;;10.24;82.77;98924.59;519533;1093;116649;-65
2021/05/19 04:41:48;;;;;;;15.77;12.27;;;;;;;10.32;82.72;98934.52;523983;1097;116731;-64
2021/05/19 04:51:56;;;;;;;13.45;12.10;;;;;;;10.40;82.73;98933.95;520243;1097;116886;-65
2021/05/19 05:02:01;;;;;;;11.88;10.68;;;;;;;10.59;82.69;98951.82;516365;1098;116265;-68
2021/05/19 05:12:07;;;;;;;11.57;10.43;;;;;;;10.57;82.23;98966.85;513462;1098;117140;-66
2021/05/19 05:22:12;;;;;;;12.63;11.33;;;;;;;10.57;82.24;98962.45;524819;1098;116786;-66
2021/05/19 05:32:18;;;;;;;13.63;12.33;;;;;;;10.70;82.14;98972.86;528945;1098;116564;-65
2021/05/19 05:42:25;;;;;;;12.45;11.25;;;;;;;10.77;81.64;98983.73;519054;1093;116118;-65
2021/05/19 05:52:31;;;;;;;9.37;8.37;;;;;;;10.63;81.46;98992.66;516552;1098;117058;-64
2021/05/19 06:02:36;;;;;;;8.63;7.83;;;;;;;10.39;81.18;99001.36;518244;1098;116126;-67
2021/05/19 06:12:41;;;;;;;9.97;8.53;;;;;;;10.37;81.65;99006.71;516927;1098;166911;-66
2021/05/19 06:22:46;;;;;;;13.60;9.00;;;;;;;10.63;81.50;99003.98;528979;1097;116316;-67
2021/05/19 06:32:52;;;;;;;9.80;8.90;;;;;;;10.73;81.23;99008.56;519579;1098;118131;-66
2021/05/19 06:42:58;;;;;;;10.27;8.90;;;;;;;11.05;80.82;99019.28;515107;1098;117676;-62
2021/05/19 06:53:03;;;;;;;10.47;9.33;;;;;;;11.19;80.13;99026.13;522227;1097;117389;-65
2021/05/19 07:03:08;;;;;;;9.90;8.87;;;;;;;11.54;79.62;99024.37;520410;1094;116366;-66
2021/05/19 07:13:16;;;;;;;9.27;7.87;;;;;;;11.68;77.84;99038.27;523717;1092;115810;-66
2021/05/19 07:23:22;;;;;;;13.00;11.57;;;;;;;11.97;77.24;99045.66;518202;1098;116680;-67
2021/05/19 07:33:27;;;;;;;7.60;6.80;;;;;;;12.48;76.81;99046.91;529688;1098;116139;-67
2021/05/19 07:43:32;;;;;;;8.87;6.63;;;;;;;12.41;75.25;99043.94;526092;1098;118350;-68
2021/05/19 07:53:37;;;;;;;5.80;5.18;;;;;;;16.56;74.67;99035.64;519386;1098;116117;-67
2021/05/19 08:03:40;;;;;;;6.50;3.63;;;;;;;18.57;64.35;99037.46;525701;1098;116083;-66
2021/05/19 08:13:46;;;;;;;3.57;3.23;;;;;;;18.15;61.80;99041.85;527237;1098;116838;-69
2021/05/19 08:23:50;;;;;;;2.23;2.00;;;;;;;18.24;59.97;99041.89;525362;1098;116374;-68
2021/05/19 08:33:57;;;;;;;4.43;2.20;;;;;;;18.38;57.04;99029.81;519834;1097;117128;-68
2021/05/19 08:44:02;;;;;;;2.43;2.23;;;;;;;17.56;55.03;99034.59;513359;1097;116484;-66
2021/05/19 08:54:09;;;;;;;5.00;2.00;;;;;;;17.91;53.22;99039.92;518122;1098;116783;-63
2021/05/19 09:04:18;;;;;;;2.37;1.67;;;;;;;18.05;51.52;99041.16;518836;1098;115587;-62
2021/05/19 09:14:23;;;;;;;4.73;2.13;;;;;;;17.33;52.41;99039.61;526190;1098;117745;-64
2021/05/19 09:24:38;;;;;;;2.65;2.35;;;;;;;17.95;52.10;99037.76;515074;1098;116707;-67
2021/05/19 09:34:44;;;;;;;3.27;2.20;;;;;;;18.05;48.45;99033.18;519003;1097;116431;-69
2021/05/19 09:44:49;;;;;;;5.37;2.77;;;;;;;16.96;48.50;99025.55;516914;1098;116527;-69
2021/05/19 09:55:03;;;;;;;2.53;2.33;;;;;;;17.00;49.29;99026.11;514958;1098;116645;-69
2021/05/19 10:05:29;;;;;;;2.53;1.90;;;;;;;17.90;48.64;99036.42;519644;1098;116485;-68
2021/05/19 10:15:36;;;;;;;2.93;1.90;;;;;;;17.44;48.09;99034.05;525087;1092;118100;-69
2021/05/19 10:25:43;;;;;;;4.60;2.75;;;;;;;17.66;47.10;99026.54;512136;1098;165997;-69
2021/05/19 10:35:49;;;;;;;2.50;2.30;;;;;;;17.05;47.08;99035.27;529032;1098;116734;-70
2021/05/19 10:45:58;;;;;;;8.50;4.33;;;;;;;15.67;47.38;99037.89;529706;1098;115961;-69
2021/05/19 11:06:28;;;;;;;1.70;1.60;;;;;;;15.03;47.90;99051.68;520157;1092;116021;-68
2021/05/19 11:17:06;;;;;;;2.47;1.97;;;;;;;15.24;49.73;99042.75;522614;1098;117008;-69
2021/05/19 11:27:17;;;;;;;5.53;2.20;;;;;;;15.72;49.63;99048.90;527819;1098;116336;-68
2021/05/19 11:37:24;;;;;;;2.85;1.80;;;;;;;16.26;49.74;99048.23;516617;1098;116254;-69
2021/05/19 11:47:37;;;;;;;2.55;1.70;;;;;;;15.80;49.32;99050.81;516751;1098;116662;-66
2021/05/19 11:57:44;;;;;;;2.95;2.23;;;;;;;15.85;49.13;99048.55;527510;1098;117169;-65
2021/05/19 12:07:49;;;;;;;4.77;2.23;;;;;;;16.77;48.91;99051.23;519525;1098;116187;-65
2021/05/19 12:17:59;;;;;;;2.13;1.65;;;;;;;17.54;48.43;99051.66;525490;1098;116952;-63
2021/05/19 12:28:07;;;;;;;5.35;2.20;;;;;;;18.00;47.43;99035.47;529058;1098;116696;-65
2021/05/19 12:38:12;;;;;;;5.87;2.60;;;;;;;17.69;46.31;99028.88;527171;1098;116765;-64
2021/05/19 12:48:19;;;;;;;2.33;1.40;;;;;;;17.91;45.54;99021.34;524061;1098;116000;-64
2021/05/19 12:58:25;;;;;;;1.40;1.30;;;;;;;17.83;44.17;99018.64;515066;1098;116204;-60
2021/05/19 13:08:31;;;;;;;2.10;0.75;;;;;;;17.78;41.72;99016.45;515950;1098;116919;-65
2021/05/19 13:18:42;;;;;;;1.97;1.40;;;;;;;17.71;43.73;99016.27;517219;1093;116066;-61
2021/05/19 13:28:49;;;;;;;2.47;1.80;;;;;;;17.16;42.75;99020.91;528961;1098;117081;-65
2021/05/19 13:38:54;;;;;;;13.27;1.70;;;;;;;16.67;43.24;99029.27;523368;1098;116307;-60
2021/05/19 13:49:15;;;;;;;1.40;1.23;;;;;;;16.42;44.64;99042.28;519532;1098;116179;-65
2021/05/19 13:59:22;;;;;;;1.53;1.43;;;;;;;16.47;45.02;99039.19;523992;1098;117039;-64
2021/05/19 14:09:27;;;;;;;5.00;2.03;;;;;;;16.92;45.31;99045.42;529768;1098;119690;-65
2021/05/19 14:20:07;;;;;;;2.33;2.00;;;;;;;17.05;45.11;99031.77;526333;1098;116346;-69
2021/05/19 14:30:16;;;;;;;4.43;1.70;;;;;;;17.15;45.10;99031.70;529685;1098;117120;-68
2021/05/19 15:00:58;;;;;;;4.97;2.10;;;;;;;16.56;44.67;99042.74;512325;1094;116420;-63
2021/05/19 15:11:03;;;;;;;3.00;2.10;;;;;;;16.23;44.40;99043.24;529105;1098;157964;-67
2021/05/19 15:21:09;;;;;;;4.80;3.03;;;;;;;15.82;45.55;99051.50;520722;1097;115915;-63
2021/05/19 15:31:14;;;;;;;2.83;1.53;;;;;;;15.62;45.75;99053.39;525639;1098;116624;-66
2021/05/19 15:41:20;;;;;;;2.03;1.60;;;;;;;16.18;45.63;99053.47;517388;1098;116466;-61
2021/05/19 15:51:25;;;;;;;1.93;1.53;;;;;;;15.75;46.01;99055.69;529722;1098;116282;-61
2021/05/19 16:01:30;;;;;;;3.20;1.63;;;;;;;15.67;46.20;99064.36;524870;1098;116055;-63
2021/05/19 16:11:36;;;;;;;3.45;2.55;;;;;;;15.68;46.58;99060.73;520414;1098;116465;-65
2021/05/19 16:21:41;;;;;;;5.68;1.88;;;;;;;15.37;46.18;99072.38;499001;1093;10001625;-65
2021/05/19 16:31:46;;;;;;;3.55;2.30;;;;;;;15.02;47.29;99076.45;515839;1098;117003;-64
2021/05/19 16:41:53;;;;;;;4.90;1.67;;;;;;;14.78;48.09;99076.88;518793;1098;115891;-64
2021/05/19 16:52:00;;;;;;;3.87;1.60;;;;;;;14.63;48.24;99089.63;520975;1098;116436;-55
2021/05/19 17:12:41;;;;;;;6.70;2.30;;;;;;;15.50;46.94;99095.89;524519;1098;116269;-64
2021/05/19 17:22:46;;;;;;;4.30;1.60;;;;;;;14.69;48.09;99092.55;526633;1098;118193;-65
2021/05/19 17:32:51;;;;;;;3.00;1.30;;;;;;;14.38;48.81;99105.02;527104;1098;164948;-65
2021/05/19 17:42:56;;;;;;;6.53;1.67;;;;;;;14.07;49.49;99105.86;527979;1098;117211;-66
2021/05/19 17:53:01;;;;;;;2.70;1.90;;;;;;;13.82;50.36;99107.16;523253;1098;116623;-64
2021/05/19 18:03:09;;;;;;;2.13;1.70;;;;;;;13.57;50.94;99127.72;521319;1098;115783;-64
2021/05/19 18:13:14;;;;;;;3.40;1.90;;;;;;;13.21;51.72;99127.13;523440;1098;116212;-64
2021/05/19 18:23:19;;;;;;;3.70;2.20;;;;;;;12.86;52.79;99137.79;513302;1098;116644;-65
2021/05/19 18:33:27;;;;;;;3.58;2.33;;;;;;;12.59;53.47;99132.97;528624;1098;118078;-65
2021/05/19 18:43:32;;;;;;;2.15;2.00;;;;;;;12.33;54.63;99149.02;519648;1098;116204;-64
2021/05/19 18:53:39;;;;;;;5.73;2.80;;;;;;;12.10;55.64;99145.56;503541;1098;20001134;-63
2021/05/19 19:03:44;;;;;;;3.67;2.60;;;;;;;11.74;57.33;99156.98;524051;1098;117486;-63
2021/05/19 19:13:49;;;;;;;7.53;2.43;;;;;;;11.39;58.35;99170.13;513110;1098;116778;-63
2021/05/19 19:23:54;;;;;;;3.00;2.10;;;;;;;11.05;59.75;99176.09;513781;1093;116687;-65
2021/05/19 19:33:59;;;;;;;5.10;2.05;;;;;;;10.83;61.11;99179.41;517821;1098;116376;-62
2021/05/19 19:44:07;;;;;;;2.27;1.93;;;;;;;10.86;61.86;99182.67;519806;1093;116801;-63
2021/05/19 19:54:13;;;;;;;7.03;3.10;;;;;;;10.76;62.26;99185.13;518088;1098;116446;-64
2021/05/19 20:04:19;;;;;;;5.13;3.37;;;;;;;10.63;63.08;99198.27;522556;1098;116313;-65
2021/05/19 20:14:24;;;;;;;7.67;4.60;;;;;;;10.51;63.52;99202.63;521832;1098;116498;-64
2021/05/19 20:24:30;;;;;;;6.10;4.25;;;;;;;10.34;63.20;99188.02;518317;1098;117350;-63
2021/05/19 20:34:36;;;;;;;5.97;3.67;;;;;;;10.08;63.71;99200.30;515415;1098;117182;-65
2021/05/19 20:44:41;;;;;;;8.43;4.97;;;;;;;9.77;64.46;99208.47;512018;1098;116272;-65
2021/05/19 20:54:47;;;;;;;8.20;5.53;;;;;;;9.49;65.47;99209.46;511873;1098;116783;-64
2021/05/19 21:04:52;;;;;;;6.60;5.10;;;;;;;9.19;66.33;99208.73;514650;1093;117029;-65
2021/05/19 21:14:57;;;;;;;6.17;4.60;;;;;;;8.88;67.03;99213.31;527535;1098;116375;-65
2021/05/19 21:25:03;;;;;;;11.67;5.47;;;;;;;8.65;67.21;99205.13;520585;1098;116541;-64
2021/05/19 21:35:10;;;;;;;8.15;5.00;;;;;;;8.47;67.56;99208.83;521605;1098;116473;-65
2021/05/19 21:45:15;;;;;;;7.37;5.43;;;;;;;8.28;68.12;99218.64;519515;1097;116227;-65
2021/05/19 21:55:20;;;;;;;8.47;6.10;;;;;;;8.05;68.58;99222.66;512891;1098;116325;-67
2021/05/19 22:05:25;;;;;;;11.03;6.43;;;;;;;7.80;69.05;99216.27;513444;1092;117281;-66
2021/05/19 22:15:32;;;;;;;10.33;5.97;;;;;;;7.59;70.01;99227.97;512811;1092;115983;-66
2021/05/19 22:25:40;;;;;;;8.40;5.57;;;;;;;7.36;69.96;99235.34;515112;1093;116474;-64
2021/05/19 22:35:47;;;;;;;8.17;5.90;;;;;;;7.14;70.97;99241.77;514398;1098;116487;-67
2021/05/19 22:45:52;;;;;;;11.67;6.13;;;;;;;6.94;71.29;99254.14;513049;1098;115823;-66
2021/05/19 22:55:57;;;;;;;17.48;6.05;;;;;;;6.77;72.04;99252.44;513275;1092;116253;-66
2021/05/19 23:06:02;;;;;;;8.47;5.97;;;;;;;6.60;71.88;99250.73;514511;1093;116619;-66
2021/05/19 23:16:08;;;;;;;7.70;6.03;;;;;;;6.40;71.98;99252.61;511828;1093;115867;-65
2021/05/19 23:26:13;;;;;;;11.40;7.45;;;;;;;6.26;72.60;99253.35;516299;1098;116377;-65
2021/05/19 23:36:18;;;;;;;9.97;6.83;;;;;;;6.13;72.26;99257.52;513248;1098;116600;-65
2021/05/19 23:46:23;;;;;;;12.97;8.23;;;;;;;5.98;72.65;99261.70;513519;1098;116751;-65
2021/05/19 23:56:29;;;;;;;10.27;7.73;;;;;;;5.89;72.87;99278.66;511516;1098;116136;-66
